F/V Oceanie — FVBW — position and weather

sailwx.info

Track history (hours):
 
Tides and Currents Weather Stations Pressure Air Temp Water Temp Dewpoint Dewpoint Depression Visibility Wind Speed Wind Dir Waves Ship Positions

F/V Oceanie

Last reported at 2014-Oct-01 05:33 UTC. Time now 2014-Oct-01 06:06 UTC.
Position N 47°31' W 003°23'.

Length 16 m.

Type: Fishing. MMSI: 228370000.

Date/timePositionNaut miles runAvg speedWind from/ knotsBaromVisibWave heightAir tempDewpointWater temp
2014-Oct-01 05:33N 47°31' W 003°23'9 9.0
2014-Oct-01 04:34N 47°40' W 003°22'4 0.3
2014-Sep-30 17:22N 47°44' W 003°22'0 0.0
2014-Sep-30 16:34N 47°44' W 003°22'4 4.4
2014-Sep-30 15:33N 47°39' W 003°22'8 0.8
2014-Sep-30 05:33N 47°32' W 003°22'9 8.9
2014-Sep-30 04:34N 47°40' W 003°22'3 0.3
2014-Sep-29 16:33N 47°44' W 003°22'2 1.8
2014-Sep-29 15:33N 47°42' W 003°22'10 9.6
2014-Sep-29 14:33N 47°32' W 003°22'4 0.4
2014-Sep-29 05:33N 47°36' W 003°24'8 8.1
2014-Sep-29 04:33N 47°44' W 003°22'0 0.0
2014-Sep-28 15:34N 47°44' W 003°22'2 1.8
2014-Sep-28 14:33N 47°42' W 003°22'10 1.2
2014-Sep-28 06:29N 47°32' W 003°26'8 8.9
2014-Sep-28 05:34N 47°40' W 003°22'4 0.1
2014-Sep-26 09:33N 47°44' W 003°22'0 0.0
2014-Sep-26 08:33N 47°44' W 003°22'0 0.0
2014-Sep-26 07:33N 47°44' W 003°22'0 0.0
2014-Sep-26 05:33N 47°44' W 003°22'0 0.0
2014-Sep-25 17:33N 47°44' W 003°22'0 0.0
2014-Sep-25 16:33N 47°44' W 003°22'3 2.9
2014-Sep-25 15:33N 47°41' W 003°22'11 1.2
2014-Sep-25 06:12N 47°30' W 003°27'6 9.0
2014-Sep-25 05:33N 47°36' W 003°24'8 8.2
2014-Sep-25 04:33N 47°44' W 003°22'0 0.0
2014-Sep-24 16:23N 47°44' W 003°22'0 0.0
2014-Sep-24 15:33N 47°44' W 003°22'5 4.5
2014-Sep-24 14:34N 47°39' W 003°23'5 0.2
2014-Sep-23 13:33N 47°44' W 003°22'0 0.0
2014-Sep-23 12:33N 47°44' W 003°22'7 7.2
2014-Sep-23 11:34N 47°37' W 003°24'8 1.9
2014-Sep-23 07:05N 47°36' W 003°36'4 8.4
2014-Sep-23 06:34N 47°39' W 003°32'8 8.0
2014-Sep-23 05:34N 47°44' W 003°22'0 0.0
2014-Sep-22 16:07N 47°44' W 003°22'0 0.0
2014-Sep-22 15:34N 47°44' W 003°22'0 0.0
2014-Sep-22 14:34N 47°44' W 003°22'4 4.3
2014-Sep-22 13:34N 47°41' W 003°26'7 7.0
2014-Sep-22 12:33N 47°38' W 003°36'3 0.7
2014-Sep-22 08:26N 47°35' W 003°34'7 3.8
2014-Sep-22 06:34N 47°36' W 003°24'8 7.6
2014-Sep-22 05:34N 47°44' W 003°22'0 0.0
2014-Sep-21 17:33N 47°44' W 003°22'2 1.5
2014-Sep-21 16:33N 47°42' W 003°22'8 7.7
2014-Sep-21 15:33N 47°35' W 003°26'7 6.0
2014-Sep-21 14:28N 47°35' W 003°35'10 1.3
2014-Sep-21 06:33N 47°28' W 003°24'8 7.8
2014-Sep-21 05:33N 47°35' W 003°24'  
Track history (hours):
 
Tides and Currents Weather Stations Pressure Air Temp Water Temp Dewpoint Dewpoint Depression Visibility Wind Speed Wind Dir Waves Ship Positions

F/V Oceanie

Last reported at 2014-Oct-01 05:33 UTC. Time now 2014-Oct-01 06:06 UTC.
Position N 47°31' W 003°23'.

Length 16 m.

Type: Fishing. MMSI: 228370000.

Date/timePositionNaut miles runAvg speedWind from/ knotsBaromVisibWave heightAir tempDewpointWater temp
2014-Oct-01 05:33N 47°31' W 003°23'9 9.0
2014-Oct-01 04:34N 47°40' W 003°22'4 0.3
2014-Sep-30 17:22N 47°44' W 003°22'0 0.0
2014-Sep-30 16:34N 47°44' W 003°22'4 4.4
2014-Sep-30 15:33N 47°39' W 003°22'8 0.8
2014-Sep-30 05:33N 47°32' W 003°22'9 8.9
2014-Sep-30 04:34N 47°40' W 003°22'3 0.3
2014-Sep-29 16:33N 47°44' W 003°22'2 1.8
2014-Sep-29 15:33N 47°42' W 003°22'10 9.6
2014-Sep-29 14:33N 47°32' W 003°22'4 0.4
2014-Sep-29 05:33N 47°36' W 003°24'8 8.1
2014-Sep-29 04:33N 47°44' W 003°22'0 0.0
2014-Sep-28 15:34N 47°44' W 003°22'2 1.8
2014-Sep-28 14:33N 47°42' W 003°22'10 1.2
2014-Sep-28 06:29N 47°32' W 003°26'8 8.9
2014-Sep-28 05:34N 47°40' W 003°22'4 0.1
2014-Sep-26 09:33N 47°44' W 003°22'0 0.0
2014-Sep-26 08:33N 47°44' W 003°22'0 0.0
2014-Sep-26 07:33N 47°44' W 003°22'0 0.0
2014-Sep-26 05:33N 47°44' W 003°22'0 0.0
2014-Sep-25 17:33N 47°44' W 003°22'0 0.0
2014-Sep-25 16:33N 47°44' W 003°22'3 2.9
2014-Sep-25 15:33N 47°41' W 003°22'11 1.2
2014-Sep-25 06:12N 47°30' W 003°27'6 9.0
2014-Sep-25 05:33N 47°36' W 003°24'8 8.2
2014-Sep-25 04:33N 47°44' W 003°22'0 0.0
2014-Sep-24 16:23N 47°44' W 003°22'0 0.0
2014-Sep-24 15:33N 47°44' W 003°22'5 4.5
2014-Sep-24 14:34N 47°39' W 003°23'5 0.2
2014-Sep-23 13:33N 47°44' W 003°22'0 0.0
2014-Sep-23 12:33N 47°44' W 003°22'7 7.2
2014-Sep-23 11:34N 47°37' W 003°24'8 1.9
2014-Sep-23 07:05N 47°36' W 003°36'4 8.4
2014-Sep-23 06:34N 47°39' W 003°32'8 8.0
2014-Sep-23 05:34N 47°44' W 003°22'0 0.0
2014-Sep-22 16:07N 47°44' W 003°22'0 0.0
2014-Sep-22 15:34N 47°44' W 003°22'0 0.0
2014-Sep-22 14:34N 47°44' W 003°22'4 4.3
2014-Sep-22 13:34N 47°41' W 003°26'7 7.0
2014-Sep-22 12:33N 47°38' W 003°36'3 0.7
2014-Sep-22 08:26N 47°35' W 003°34'7 3.8
2014-Sep-22 06:34N 47°36' W 003°24'8 7.6
2014-Sep-22 05:34N 47°44' W 003°22'0 0.0
2014-Sep-21 17:33N 47°44' W 003°22'2 1.5
2014-Sep-21 16:33N 47°42' W 003°22'8 7.7
2014-Sep-21 15:33N 47°35' W 003°26'7 6.0
2014-Sep-21 14:28N 47°35' W 003°35'10 1.3
2014-Sep-21 06:33N 47°28' W 003°24'8 7.8
2014-Sep-21 05:33N 47°35' W 003°24'  

Dump ship's entire track history